Time;durP1;ratioP1;P1;durP2;ratioP2;P2;SDS_P1;SDS_P2;PMS_P1;PMS_P2;Temp;Humidity;BMP_temperature;BMP_pressure;BME280_temperature;BME280_humidity;BME280_pressure;Samples;Min_cycle;Max_cycle;Signal;HPM_P1;HPM_P2
2023/06/18 07:36:27;;;;;;;;;7.50;7.50;;;;;;;;2;261253475;261253475;-96
2023/06/18 07:44:42;;;;;;;;;15.50;15.50;;;;;;;;2;216066139;216066139;-93
2023/06/18 07:52:55;;;;;;;;;11.00;11.00;;;;;;;;2;258030643;258030643;-92
2023/06/18 07:59:35;;;;;;;;;10.00;10.00;;;;;;;;2;216068944;216068944;-95
2023/06/18 08:09:23;;;;;;;;;14.00;14.00;;;;;;;;2529810;30;261076910;-96
2023/06/18 08:12:11;;;;;;;;;8.00;8.00;;;;;;;;4;35370301;75585947;-96
2023/06/18 08:17:36;;;;;;;;;11.00;11.00;;;;;;;;810450;30;227050003;-96
2023/06/18 08:22:55;;;;;;;;;13.00;13.00;;;;;;;;26042;30;273346282;-96
2023/06/18 08:29:50;;;;;;;;;14.50;14.50;;;;;;;;2;234068620;234068620;-96
2023/06/18 08:38:36;;;;;;;;;7.00;7.00;;;;;;;;2;279001561;279001561;-94
2023/06/18 08:46:10;;;;;;;;;17.00;17.00;;;;;;;;4;8230877;112803215;-91
2023/06/18 08:53:53;;;;;;;;;12.50;12.50;;;;;;;;2;234074432;234074432;-92
2023/06/18 08:58:51;;;;;;;;;10.00;10.00;;;;;;;;2;276396578;276396578;-93
2023/06/18 09:07:49;;;;;;;;;10.50;10.50;;;;;;;;191467;30;234070392;-94
2023/06/18 09:16:51;;;;;;;;;14.50;14.50;;;;;;;;2;279086345;279086345;-93
2023/06/18 09:24:22;;;;;;;;;17.00;17.00;;;;;;;;2;234072416;234072416;-95
2023/06/18 09:33:32;;;;;;;;;10.00;10.00;;;;;;;;2;279082572;279082572;-94
2023/06/18 09:37:49;;;;;;;;;7.00;7.00;;;;;;;;2;234069762;234069762;-94
2023/06/18 09:42:30;;;;;;;;;14.00;14.00;;;;;;;;162147;30;107731450;-96
2023/06/18 09:44:55;;;;;;;;;;;;;;;;;;36717;30;120506989;-95
2023/06/18 09:47:32;;;;;;;;;17.50;17.50;;;;;;;;361613;30;73554515;-96
2023/06/18 09:54:22;;;;;;;;;9.50;9.50;;;;;;;;3;79191376;91973574;-95
2023/06/18 09:57:00;;;;;;;;;11.00;11.00;;;;;;;;161681;30;61760006;-93
2023/06/18 10:15:59;;;;;;;;;;;;;;;;;;;;;
2023/06/18 10:33:33;;;;;;;;;;;;;;;;;;;;;
2023/06/18 17:27:08;;;;;;;;;12.00;12.00;;;;;;;;2;198130214;198130214;-94
2023/06/18 17:35:52;;;;;;;;;9.00;9.00;;;;;;;;162303;30;215606008;-94
2023/06/18 17:43:52;;;;;;;;;;;;;;;;;;2;261081088;261081088;-93
2023/06/18 17:54:25;;;;;;;;;;;;;;;;;;3;99095423;138775397;-91
2023/06/18 18:05:52;;;;;;;;;9.50;9.50;;;;;;;;2;260929374;260929374;-91
2023/06/18 18:14:17;;;;;;;;;9.50;9.50;;;;;;;;2;216066690;216066690;-93
2023/06/18 18:22:37;;;;;;;;;12.50;12.50;;;;;;;;2;261081390;261081390;-94
2023/06/18 18:30:55;;;;;;;;;9.50;9.50;;;;;;;;2;216071923;216071923;-94
2023/06/18 18:39:11;;;;;;;;;13.00;13.00;;;;;;;;2;261080764;261080764;-94
2023/06/18 18:47:26;;;;;;;;;6.50;6.50;;;;;;;;2;216071555;216071555;-94
2023/06/18 18:55:42;;;;;;;;;11.50;11.50;;;;;;;;2;261082846;261082846;-95
2023/06/18 19:03:57;;;;;;;;;14.00;14.00;;;;;;;;2;216067966;216067966;-92
2023/06/18 19:11:05;;;;;;;;;10.50;10.50;;;;;;;;2;261083823;261083823;-93
2023/06/18 19:20:37;;;;;;;;;11.00;11.00;;;;;;;;3;116378178;194050621;-91
2023/06/18 19:28:07;;;;;;;;;13.00;13.00;;;;;;;;2;234069581;234069581;-91
2023/06/18 20:13:52;;;;;;;;;1.00;1.00;;;;;;;;2;234074187;234074187;-94
2023/06/18 21:13:35;;;;;;;;;1.50;1.50;;;;;;;;2;279276389;279276389;-89
2023/06/18 21:21:06;;;;;;;;;3.00;3.00;;;;;;;;2;234068802;234068802;-89
2023/06/18 21:30:07;;;;;;;;;0.50;0.50;;;;;;;;2;279083618;279083618;-89
2023/06/18 21:37:43;;;;;;;;;2.00;2.00;;;;;;;;2;234073623;234073623;-90
2023/06/18 21:46:44;;;;;;;;;3.00;3.00;;;;;;;;2;279084287;279084287;-90
2023/06/18 21:54:14;;;;;;;;;2.50;2.50;;;;;;;;2;234068485;234068485;-90
2023/06/18 22:03:15;;;;;;;;;1.50;1.50;;;;;;;;2;279085118;279085118;-90
2023/06/18 22:10:45;;;;;;;;;1.50;1.50;;;;;;;;2;234069873;234069873;-90
2023/06/18 22:19:46;;;;;;;;;5.00;5.00;;;;;;;;2;279079976;279079976;-90
2023/06/18 22:27:16;;;;;;;;;6.50;6.50;;;;;;;;2;234069981;234069981;-89
2023/06/18 22:36:16;;;;;;;;;4.50;4.50;;;;;;;;2;279083717;279083717;-90
2023/06/18 22:43:47;;;;;;;;;1.00;1.00;;;;;;;;2;234068674;234068674;-89
2023/06/18 22:52:47;;;;;;;;;2.50;2.50;;;;;;;;2;279081682;279081682;-91
2023/06/18 23:00:18;;;;;;;;;2.50;2.50;;;;;;;;2;234070172;234070172;-92
2023/06/18 23:09:18;;;;;;;;;4.50;4.50;;;;;;;;2;279081851;279081851;-92
2023/06/18 23:16:49;;;;;;;;;4.50;4.50;;;;;;;;2;234071147;234071147;-93
2023/06/18 23:25:49;;;;;;;;;2.50;2.50;;;;;;;;2;279082457;279082457;-93
2023/06/18 23:33:19;;;;;;;;;3.00;3.00;;;;;;;;2;234073092;234073092;-92
2023/06/18 23:42:20;;;;;;;;;2.50;2.50;;;;;;;;2;279084893;279084893;-92
2023/06/18 23:49:50;;;;;;;;;7.50;7.50;;;;;;;;2;234071683;234071683;-92
2023/06/18 23:58:51;;;;;;;;;23.00;23.00;;;;;;;;2;279085667;279085667;-92
